Time;durP1;ratioP1;P1;durP2;ratioP2;P2;SDS_P1;SDS_P2;PMS_P1;PMS_P2;Temp;Humidity;BMP_temperature;BMP_pressure;BME280_temperature;BME280_humidity;BME280_pressure;Samples;Min_cycle;Max_cycle;Signal;HPM_P1;HPM_P2
2022/07/13 00:00:49;;;;;;;1.58;1.13;;;;;;;;;;5143958;27;20194;-69
2022/07/13 00:03:15;;;;;;;2.40;1.50;;;;;;;;;;5144023;27;20239;-69
2022/07/13 00:05:43;;;;;;;1.25;1.25;;;;;;;;;;5143662;27;20226;-69
2022/07/13 00:08:09;;;;;;;1.63;1.23;;;;;;;;;;5142979;27;20306;-69
2022/07/13 00:10:35;;;;;;;2.97;1.05;;;;;;;;;;5144023;27;20198;-69
2022/07/13 00:13:01;;;;;;;1.17;1.17;;;;;;;;;;5143995;27;20363;-69
2022/07/13 00:15:28;;;;;;;0.95;0.95;;;;;;;;;;5143847;27;20197;-69
2022/07/13 00:17:54;;;;;;;1.23;1.10;;;;;;;;;;5143456;27;20216;-69
2022/07/13 00:20:20;;;;;;;2.05;1.02;;;;;;;;;;5143774;27;20198;-69
2022/07/13 00:22:48;;;;;;;0.98;0.98;;;;;;;;;;5143450;27;20202;-69
2022/07/13 00:25:14;;;;;;;0.98;0.98;;;;;;;;;;5143564;27;20221;-69
2022/07/13 00:27:40;;;;;;;1.90;1.05;;;;;;;;;;5143421;27;20206;-69
2022/07/13 00:30:07;;;;;;;0.95;0.95;;;;;;;;;;5143411;27;20193;-69
2022/07/13 00:32:33;;;;;;;2.20;1.17;;;;;;;;;;5143437;27;20198;-69
2022/07/13 00:34:59;;;;;;;2.15;1.35;;;;;;;;;;5143378;27;20235;-69
2022/07/13 00:37:26;;;;;;;1.60;1.23;;;;;;;;;;5143567;27;20238;-69
2022/07/13 00:39:53;;;;;;;1.30;0.70;;;;;;;;;;5143610;27;20196;-69
2022/07/13 00:42:19;;;;;;;0.95;0.95;;;;;;;;;;5143526;27;20202;-69
2022/07/13 00:44:46;;;;;;;0.88;0.88;;;;;;;;;;5143486;27;20214;-69
2022/07/13 00:47:12;;;;;;;2.17;1.00;;;;;;;;;;5143325;27;20202;-69
2022/07/13 00:49:39;;;;;;;0.85;0.85;;;;;;;;;;5143205;27;20198;-69
2022/07/13 00:52:05;;;;;;;0.93;0.93;;;;;;;;;;5143499;27;20506;-69
2022/07/13 00:54:31;;;;;;;0.98;0.80;;;;;;;;;;5143385;27;20194;-69
2022/07/13 00:57:00;;;;;;;1.00;1.00;;;;;;;;;;5143587;27;20195;-69
2022/07/13 00:59:26;;;;;;;2.25;0.95;;;;;;;;;;5147414;27;20197;-69
2022/07/13 01:01:53;;;;;;;0.90;0.90;;;;;;;;;;5147383;27;20194;-69
2022/07/13 01:04:21;;;;;;;2.05;1.10;;;;;;;;;;5147139;27;20510;-69
2022/07/13 01:06:47;;;;;;;1.13;0.90;;;;;;;;;;5147001;27;20553;-69
2022/07/13 01:09:13;;;;;;;3.00;1.20;;;;;;;;;;5147213;27;20217;-69
2022/07/13 01:11:40;;;;;;;1.95;1.17;;;;;;;;;;5147225;27;20198;-69
2022/07/13 01:14:08;;;;;;;1.05;0.88;;;;;;;;;;5147070;27;20226;-69
2022/07/13 01:16:34;;;;;;;1.00;1.00;;;;;;;;;;5146806;27;20210;-69
2022/07/13 01:19:01;;;;;;;1.20;1.00;;;;;;;;;;5146836;27;20201;-69
2022/07/13 01:21:27;;;;;;;2.47;1.10;;;;;;;;;;5147445;27;20430;-69
2022/07/13 01:23:55;;;;;;;0.98;0.98;;;;;;;;;;5147093;27;20255;-69
2022/07/13 01:26:21;;;;;;;1.30;1.20;;;;;;;;;;5146969;27;20210;-69
2022/07/13 01:28:47;;;;;;;1.55;0.98;;;;;;;;;;5146189;27;20203;-69
2022/07/13 01:31:25;;;;;;;1.05;1.05;;;;;;;;;;5146978;27;20241;-69
2022/07/13 01:33:51;;;;;;;2.25;1.02;;;;;;;;;;5146931;27;20392;-69
2022/07/13 01:36:17;;;;;;;2.42;1.30;;;;;;;;;;5146476;27;20535;-69
2022/07/13 01:38:43;;;;;;;1.15;1.15;;;;;;;;;;5146625;27;20195;-69
2022/07/13 01:41:11;;;;;;;1.77;1.30;;;;;;;;;;5146460;27;20194;-69
2022/07/13 01:43:38;;;;;;;3.03;1.40;;;;;;;;;;5146706;27;20190;-69
2022/07/13 01:46:04;;;;;;;1.10;1.10;;;;;;;;;;5146321;27;20256;-69
2022/07/13 01:48:30;;;;;;;2.15;1.27;;;;;;;;;;5146371;27;20216;-69
2022/07/13 01:50:56;;;;;;;1.88;1.30;;;;;;;;;;5146348;27;20239;-69
2022/07/13 01:53:23;;;;;;;1.55;1.45;;;;;;;;;;5146255;27;20232;-69
2022/07/13 01:55:49;;;;;;;1.35;1.35;;;;;;;;;;5146198;27;20256;-69
2022/07/13 01:58:16;;;;;;;1.00;1.00;;;;;;;;;;5146131;27;20240;-69
2022/07/13 02:00:43;;;;;;;1.10;1.10;;;;;;;;;;5146248;27;20202;-69
2022/07/13 02:03:09;;;;;;;1.23;1.13;;;;;;;;;;5146579;27;20195;-69
2022/07/13 02:05:35;;;;;;;1.00;1.00;;;;;;;;;;5146016;27;20220;-69
2022/07/13 02:08:01;;;;;;;1.05;1.05;;;;;;;;;;5145501;27;20209;-69
2022/07/13 02:10:35;;;;;;;2.05;1.38;;;;;;;;;;5145387;27;21363;-69
2022/07/13 02:13:02;;;;;;;1.30;1.30;;;;;;;;;;5146179;27;20202;-69
2022/07/13 02:15:30;;;;;;;1.85;1.50;;;;;;;;;;5146045;27;20513;-69
2022/07/13 02:17:56;;;;;;;1.38;1.13;;;;;;;;;;5145683;27;20489;-69
2022/07/13 02:20:22;;;;;;;1.27;1.25;;;;;;;;;;5145894;27;20198;-69
2022/07/13 02:22:48;;;;;;;1.10;1.10;;;;;;;;;;5145607;27;20194;-69
2022/07/13 02:25:15;;;;;;;0.95;0.95;;;;;;;;;;5145974;27;20214;-69
2022/07/13 02:27:41;;;;;;;1.38;1.27;;;;;;;;;;5145732;27;20194;-69
2022/07/13 02:30:08;;;;;;;1.30;1.17;;;;;;;;;;5145761;27;20277;-69
2022/07/13 02:32:36;;;;;;;1.10;1.10;;;;;;;;;;5145622;27;20194;-69
2022/07/13 02:35:02;;;;;;;3.42;1.30;;;;;;;;;;5145576;27;20249;-69
2022/07/13 02:37:29;;;;;;;1.30;1.20;;;;;;;;;;5145576;27;20206;-69
2022/07/13 02:39:56;;;;;;;1.10;1.10;;;;;;;;;;5145688;27;20194;-69
2022/07/13 02:42:22;;;;;;;2.80;1.00;;;;;;;;;;5145560;27;20209;-69
2022/07/13 02:44:48;;;;;;;2.25;1.00;;;;;;;;;;5145485;27;20198;-69
2022/07/13 02:47:14;;;;;;;1.42;1.27;;;;;;;;;;5145239;27;20239;-69
2022/07/13 02:49:42;;;;;;;5.35;1.40;;;;;;;;;;5145269;27;20202;-69
2022/07/13 02:52:08;;;;;;;1.08;1.08;;;;;;;;;;5145082;27;20198;-69
2022/07/13 02:54:35;;;;;;;2.85;1.40;;;;;;;;;;5145459;27;20394;-69
2022/07/13 02:57:01;;;;;;;1.60;1.52;;;;;;;;;;5145032;27;20190;-69
2022/07/13 02:59:27;;;;;;;3.83;1.80;;;;;;;;;;5145250;27;20232;-69
2022/07/13 03:01:53;;;;;;;1.45;1.40;;;;;;;;;;5145178;27;20199;-69
2022/07/13 03:04:20;;;;;;;1.20;1.20;;;;;;;;;;5145039;27;20255;-69
2022/07/13 03:06:47;;;;;;;2.17;1.40;;;;;;;;;;5144514;27;20466;-69
2022/07/13 03:09:14;;;;;;;2.25;1.60;;;;;;;;;;5145013;27;20195;-69
2022/07/13 03:11:40;;;;;;;1.52;1.42;;;;;;;;;;5144999;27;20198;-69
2022/07/13 03:14:06;;;;;;;2.15;1.30;;;;;;;;;;5144810;27;20388;-69
2022/07/13 03:16:34;;;;;;;1.85;1.70;;;;;;;;;;5144456;27;20228;-69
2022/07/13 03:19:00;;;;;;;1.30;1.30;;;;;;;;;;5144766;27;20501;-69
2022/07/13 03:21:29;;;;;;;1.58;1.40;;;;;;;;;;5144717;27;20202;-69
2022/07/13 03:23:56;;;;;;;4.18;1.58;;;;;;;;;;5144610;27;20261;-69
2022/07/13 03:26:23;;;;;;;1.85;1.52;;;;;;;;;;5144322;27;20445;-69
2022/07/13 03:28:49;;;;;;;2.20;2.00;;;;;;;;;;5144595;27;20521;-69
2022/07/13 03:31:16;;;;;;;1.85;1.75;;;;;;;;;;5144440;27;20195;-69
2022/07/13 03:33:42;;;;;;;1.98;1.45;;;;;;;;;;5144395;27;20263;-69
2022/07/13 03:36:09;;;;;;;2.08;2.08;;;;;;;;;;5144400;27;20454;-69
2022/07/13 03:38:35;;;;;;;1.35;1.35;;;;;;;;;;5144455;27;20194;-69
2022/07/13 03:41:03;;;;;;;1.35;1.30;;;;;;;;;;5144673;27;20194;-69
2022/07/13 03:43:30;;;;;;;1.10;1.10;;;;;;;;;;5144121;27;20532;-69
2022/07/13 03:45:56;;;;;;;1.10;1.10;;;;;;;;;;5143878;27;20251;-69
2022/07/13 03:48:22;;;;;;;1.48;1.20;;;;;;;;;;5144026;27;20206;-69
2022/07/13 03:50:49;;;;;;;1.73;1.27;;;;;;;;;;5144370;27;20251;-69
2022/07/13 03:53:15;;;;;;;1.33;1.30;;;;;;;;;;5144229;27;20198;-69
2022/07/13 03:55:42;;;;;;;1.48;1.20;;;;;;;;;;5144053;27;20549;-68
2022/07/13 03:58:10;;;;;;;1.05;1.05;;;;;;;;;;5143893;27;20199;-68
2022/07/13 04:00:37;;;;;;;1.48;1.35;;;;;;;;;;5143745;27;20408;-69
2022/07/13 04:03:03;;;;;;;1.45;0.93;;;;;;;;;;5143861;27;20240;-69
2022/07/13 04:05:30;;;;;;;1.77;1.13;;;;;;;;;;5143699;27;20223;-69
2022/07/13 04:07:56;;;;;;;1.73;1.05;;;;;;;;;;5143535;27;20206;-69
2022/07/13 04:10:23;;;;;;;1.50;1.40;;;;;;;;;;5143973;27;20194;-69
2022/07/13 04:12:50;;;;;;;1.58;1.25;;;;;;;;;;5143906;27;20231;-69
2022/07/13 04:15:17;;;;;;;0.98;0.98;;;;;;;;;;5143605;27;20267;-69
2022/07/13 04:17:44;;;;;;;1.40;1.10;;;;;;;;;;5143658;27;20194;-68
2022/07/13 04:20:11;;;;;;;4.22;1.20;;;;;;;;;;5143971;27;20202;-68
2022/07/13 04:22:38;;;;;;;2.28;1.10;;;;;;;;;;5143743;27;20231;-68
2022/07/13 04:25:05;;;;;;;1.40;1.30;;;;;;;;;;5143640;27;20316;-68
2022/07/13 04:27:31;;;;;;;3.17;1.52;;;;;;;;;;5143340;27;20218;-67
2022/07/13 04:29:57;;;;;;;2.47;2.28;;;;;;;;;;5143532;27;20398;-67
2022/07/13 04:32:25;;;;;;;2.05;1.48;;;;;;;;;;5143144;27;20187;-67
2022/07/13 04:34:51;;;;;;;2.38;2.17;;;;;;;;;;5143790;27;20198;-67
2022/07/13 04:37:18;;;;;;;3.28;1.63;;;;;;;;;;5143534;27;20209;-67
2022/07/13 04:39:44;;;;;;;1.52;1.42;;;;;;;;;;5143545;27;20198;-67
2022/07/13 04:42:10;;;;;;;1.88;1.77;;;;;;;;;;5143801;27;20201;-68
2022/07/13 04:44:36;;;;;;;4.07;2.60;;;;;;;;;;5143540;27;20239;-67
2022/07/13 04:47:03;;;;;;;2.60;1.65;;;;;;;;;;5143049;27;20210;-67
2022/07/13 04:49:30;;;;;;;1.83;1.50;;;;;;;;;;5143671;27;20430;-68
2022/07/13 04:51:56;;;;;;;1.50;1.40;;;;;;;;;;5143499;27;20525;-68
2022/07/13 04:54:23;;;;;;;1.70;1.70;;;;;;;;;;5143343;27;20232;-68
2022/07/13 04:56:49;;;;;;;2.25;1.40;;;;;;;;;;5143023;27;20197;-67
2022/07/13 04:59:16;;;;;;;2.20;2.00;;;;;;;;;;5143711;27;20217;-68
2022/07/13 05:01:42;;;;;;;1.73;1.63;;;;;;;;;;5143551;27;20424;-68
2022/07/13 05:04:08;;;;;;;1.92;1.83;;;;;;;;;;5143747;27;20198;-68
2022/07/13 05:06:36;;;;;;;2.92;2.72;;;;;;;;;;5142854;27;20285;-68
2022/07/13 05:09:02;;;;;;;2.50;1.60;;;;;;;;;;5143621;27;20220;-68
2022/07/13 05:11:28;;;;;;;1.42;1.40;;;;;;;;;;5143347;27;20195;-68
2022/07/13 05:13:55;;;;;;;1.50;1.40;;;;;;;;;;5143283;27;20198;-68
2022/07/13 05:16:21;;;;;;;2.38;1.48;;;;;;;;;;5143107;27;20194;-68
2022/07/13 05:18:47;;;;;;;1.30;1.20;;;;;;;;;;5143453;27;20291;-68
2022/07/13 05:21:14;;;;;;;3.83;1.52;;;;;;;;;;5142796;27;20231;-69
2022/07/13 05:23:42;;;;;;;1.35;1.35;;;;;;;;;;5142609;27;20194;-69
2022/07/13 05:26:08;;;;;;;1.52;1.40;;;;;;;;;;5142345;27;20241;-69
2022/07/13 05:28:35;;;;;;;1.50;1.40;;;;;;;;;;5142696;27;20418;-69
2022/07/13 05:31:01;;;;;;;1.65;1.65;;;;;;;;;;5142722;27;20198;-69
2022/07/13 05:33:27;;;;;;;3.30;1.70;;;;;;;;;;5142526;27;20194;-69
2022/07/13 05:35:53;;;;;;;2.00;1.80;;;;;;;;;;5142960;27;20232;-69
2022/07/13 05:38:20;;;;;;;1.95;1.85;;;;;;;;;;5142495;27;20198;-69
2022/07/13 05:40:47;;;;;;;5.88;2.75;;;;;;;;;;5142527;27;20202;-68
2022/07/13 05:43:14;;;;;;;4.88;2.55;;;;;;;;;;5142565;27;20190;-68
2022/07/13 05:45:40;;;;;;;6.60;3.58;;;;;;;;;;5145545;27;20434;-68
2022/07/13 05:48:06;;;;;;;4.18;2.70;;;;;;;;;;5145801;27;20440;-68
2022/07/13 05:50:32;;;;;;;5.80;3.65;;;;;;;;;;5145930;27;20201;-69
2022/07/13 05:52:59;;;;;;;3.20;2.90;;;;;;;;;;5145956;27;20198;-69
2022/07/13 05:55:26;;;;;;;3.90;3.03;;;;;;;;;;5146108;27;20244;-69
2022/07/13 05:57:53;;;;;;;2.30;2.10;;;;;;;;;;5145896;27;20194;-62
2022/07/13 06:00:20;;;;;;;5.88;2.35;;;;;;;;;;5146069;27;20194;-61
2022/07/13 06:02:46;;;;;;;6.35;3.15;;;;;;;;;;5145674;27;20195;-61
2022/07/13 06:05:13;;;;;;;3.88;2.40;;;;;;;;;;5143755;27;20990;-62
2022/07/13 06:07:40;;;;;;;3.80;2.20;;;;;;;;;;5147507;27;20222;-62
2022/07/13 06:10:07;;;;;;;4.25;2.75;;;;;;;;;;5159996;27;20690;-61
2022/07/13 06:12:33;;;;;;;6.15;2.60;;;;;;;;;;5143631;27;20282;-60
2022/07/13 06:15:01;;;;;;;10.48;2.20;;;;;;;;;;5149179;27;20206;-61
2022/07/13 06:17:27;;;;;;;5.15;2.33;;;;;;;;;;5140692;27;20202;-61
2022/07/13 06:19:53;;;;;;;3.22;1.90;;;;;;;;;;5142446;27;20210;-62
2022/07/13 06:22:19;;;;;;;3.92;1.98;;;;;;;;;;5144911;27;20210;-63
2022/07/13 06:24:46;;;;;;;2.95;1.73;;;;;;;;;;5148836;27;20210;-62
2022/07/13 06:27:12;;;;;;;4.97;1.60;;;;;;;;;;5141386;27;20226;-61
2022/07/13 06:29:39;;;;;;;1.95;1.80;;;;;;;;;;5136647;27;20233;-61
2022/07/13 06:32:06;;;;;;;1.38;1.38;;;;;;;;;;5147624;27;20206;-61
2022/07/13 06:34:33;;;;;;;4.97;1.90;;;;;;;;;;5137860;27;20549;-61
2022/07/13 06:36:59;;;;;;;1.67;1.58;;;;;;;;;;5136708;27;20271;-62
2022/07/13 06:39:25;;;;;;;1.70;1.50;;;;;;;;;;5137626;27;20210;-62
2022/07/13 06:41:51;;;;;;;1.58;1.48;;;;;;;;;;5154641;27;20274;-61
2022/07/13 06:44:18;;;;;;;3.00;1.60;;;;;;;;;;5137797;27;20451;-62
2022/07/13 06:46:44;;;;;;;2.42;1.33;;;;;;;;;;5136718;27;20569;-61
2022/07/13 06:49:11;;;;;;;1.55;1.25;;;;;;;;;;5137275;27;20206;-61
2022/07/13 06:51:38;;;;;;;3.08;1.17;;;;;;;;;;5137180;27;20565;-62
2022/07/13 06:54:04;;;;;;;2.95;1.30;;;;;;;;;;5158311;27;20516;-62
2022/07/13 06:56:30;;;;;;;2.55;1.38;;;;;;;;;;5156530;27;20227;-62
2022/07/13 06:58:57;;;;;;;3.45;1.30;;;;;;;;;;5141867;27;20217;-62
2022/07/13 07:01:23;;;;;;;2.45;1.27;;;;;;;;;;5148946;27;20218;-61
2022/07/13 07:03:49;;;;;;;2.67;1.08;;;;;;;;;;5154338;27;20439;-63
2022/07/13 07:06:17;;;;;;;1.17;1.10;;;;;;;;;;5156659;27;20233;-62
2022/07/13 07:08:43;;;;;;;4.20;1.50;;;;;;;;;;5149873;27;20513;-62
2022/07/13 07:11:10;;;;;;;2.33;1.40;;;;;;;;;;5157707;27;20768;-62
2022/07/13 07:13:36;;;;;;;3.03;1.52;;;;;;;;;;5157170;27;20201;-62
2022/07/13 07:16:02;;;;;;;3.65;1.40;;;;;;;;;;5156517;27;20213;-62
2022/07/13 07:18:28;;;;;;;3.15;1.13;;;;;;;;;;5156660;27;20205;-63
2022/07/13 07:20:55;;;;;;;2.38;1.33;;;;;;;;;;5137409;27;20237;-62
2022/07/13 07:23:22;;;;;;;0.70;0.70;;;;;;;;;;5142103;27;20210;-63
2022/07/13 07:25:48;;;;;;;2.17;1.30;;;;;;;;;;5156323;27;20254;-63
2022/07/13 07:28:15;;;;;;;1.23;1.10;;;;;;;;;;5156649;27;20408;-62
2022/07/13 07:30:41;;;;;;;2.58;1.80;;;;;;;;;;5152571;27;20452;-62
2022/07/13 07:33:07;;;;;;;2.40;1.40;;;;;;;;;;5157112;27;20517;-61
2022/07/13 07:35:33;;;;;;;1.52;1.10;;;;;;;;;;5147203;27;20232;-61
2022/07/13 07:38:00;;;;;;;6.30;3.63;;;;;;;;;;5143010;27;20246;-62
2022/07/13 07:40:28;;;;;;;5.28;2.35;;;;;;;;;;5141826;27;20206;-61
2022/07/13 07:42:54;;;;;;;2.50;0.90;;;;;;;;;;5139509;27;20201;-62
2022/07/13 07:45:20;;;;;;;1.50;0.80;;;;;;;;;;5138140;27;20207;-61
2022/07/13 07:47:47;;;;;;;3.75;2.85;;;;;;;;;;5136435;27;20229;-61
2022/07/13 07:50:13;;;;;;;0.93;0.93;;;;;;;;;;5148994;27;20231;-62
2022/07/13 07:52:40;;;;;;;2.55;2.35;;;;;;;;;;5139082;27;20216;-62
2022/07/13 07:55:06;;;;;;;1.25;1.15;;;;;;;;;;5148514;27;20216;-61
2022/07/13 07:57:43;;;;;;;2.85;1.15;;;;;;;;;;5139531;27;20290;-62
2022/07/13 08:00:10;;;;;;;3.45;1.05;;;;;;;;;;5135170;27;20278;-61
2022/07/13 08:02:37;;;;;;;2.30;0.80;;;;;;;;;;5136615;27;20210;-62
2022/07/13 08:05:05;;;;;;;4.57;1.13;;;;;;;;;;5135401;27;20247;-62
2022/07/13 08:07:31;;;;;;;3.63;0.80;;;;;;;;;;5134429;27;20222;-62
2022/07/13 08:09:57;;;;;;;4.43;1.27;;;;;;;;;;5135320;27;20210;-62
2022/07/13 08:12:23;;;;;;;1.42;0.82;;;;;;;;;;5136060;27;20217;-62
2022/07/13 08:14:52;;;;;;;4.25;1.02;;;;;;;;;;5135180;27;20256;-62
2022/07/13 08:17:18;;;;;;;3.17;0.73;;;;;;;;;;5145321;27;20250;-62
2022/07/13 08:19:44;;;;;;;1.60;0.90;;;;;;;;;;5155175;27;20257;-62
2022/07/13 08:22:10;;;;;;;0.75;0.75;;;;;;;;;;5135016;27;20399;-62
2022/07/13 08:24:36;;;;;;;2.22;1.20;;;;;;;;;;5139530;27;20258;-61
2022/07/13 08:27:03;;;;;;;0.93;0.80;;;;;;;;;;5137040;27;20265;-61
2022/07/13 08:29:29;;;;;;;1.27;1.27;;;;;;;;;;5143512;27;20487;-62
2022/07/13 08:31:57;;;;;;;3.50;0.90;;;;;;;;;;5136585;27;20217;-62
2022/07/13 08:39:50;;;;;;;4.82;0.98;;;;;;;;;;5155355;27;20212;-62
2022/07/13 08:42:17;;;;;;;3.47;3.25;;;;;;;;;;5138514;27;20209;-62
2022/07/13 08:44:43;;;;;;;8.85;5.90;;;;;;;;;;5156047;27;20197;-62
2022/07/13 08:47:11;;;;;;;2.00;0.70;;;;;;;;;;5146172;27;20270;-63
2022/07/13 08:49:37;;;;;;;1.75;0.70;;;;;;;;;;5135343;27;20241;-62
2022/07/13 08:52:04;;;;;;;4.10;0.95;;;;;;;;;;5134922;27;20301;-62
2022/07/13 08:54:30;;;;;;;3.55;0.80;;;;;;;;;;5152255;27;20536;-62
2022/07/13 08:56:57;;;;;;;2.63;0.80;;;;;;;;;;5134064;27;20442;-62
2022/07/13 08:59:23;;;;;;;2.47;0.90;;;;;;;;;;5153396;27;20216;-62
2022/07/13 09:01:49;;;;;;;1.13;0.95;;;;;;;;;;5154862;27;20232;-62
2022/07/13 09:04:17;;;;;;;4.97;0.90;;;;;;;;;;5156423;27;20217;-62
2022/07/13 09:06:44;;;;;;;1.05;1.05;;;;;;;;;;5146415;27;20494;-62
2022/07/13 09:09:24;;;;;;;0.70;0.70;;;;;;;;;;5134424;27;20237;-61
2022/07/13 09:11:50;;;;;;;0.60;0.60;;;;;;;;;;5134859;27;20507;-62
2022/07/13 09:14:23;;;;;;;0.70;0.70;;;;;;;;;;5134601;27;20210;-61
2022/07/13 09:16:51;;;;;;;5.00;0.50;;;;;;;;;;5134985;27;20210;-62
2022/07/13 09:19:24;;;;;;;2.28;0.70;;;;;;;;;;5147133;27;20581;-62
2022/07/13 09:21:51;;;;;;;4.13;0.93;;;;;;;;;;5150829;27;20435;-62
2022/07/13 09:24:17;;;;;;;0.77;0.50;;;;;;;;;;5153292;27;20480;-62
2022/07/13 09:26:45;;;;;;;3.92;0.80;;;;;;;;;;5143052;27;20246;-62
2022/07/13 09:29:12;;;;;;;4.95;0.70;;;;;;;;;;5148272;27;20454;-62
2022/07/13 09:31:50;;;;;;;1.45;0.63;;;;;;;;;;5152402;27;20208;-62
2022/07/13 09:34:16;;;;;;;0.50;0.50;;;;;;;;;;5142572;27;20372;-61
2022/07/13 09:36:44;;;;;;;3.20;0.63;;;;;;;;;;5155892;27;20461;-62
2022/07/13 09:39:10;;;;;;;1.13;0.68;;;;;;;;;;5141738;27;20201;-63
2022/07/13 09:41:37;;;;;;;1.05;0.63;;;;;;;;;;5139259;27;20414;-63
2022/07/13 09:46:52;;;;;;;2.05;0.75;;;;;;;;;;5138308;27;20212;-63
2022/07/13 09:49:18;;;;;;;2.03;0.60;;;;;;;;;;5151114;27;20236;-63
2022/07/13 09:51:46;;;;;;;6.38;1.50;;;;;;;;;;5137429;27;20434;-63
2022/07/13 09:54:13;;;;;;;1.02;0.80;;;;;;;;;;5137986;27;20571;-63
2022/07/13 09:56:41;;;;;;;3.08;0.60;;;;;;;;;;5137551;27;20217;-63
2022/07/13 09:59:08;;;;;;;1.25;0.60;;;;;;;;;;5138556;27;20210;-62
2022/07/13 10:01:34;;;;;;;3.00;0.77;;;;;;;;;;5150165;27;20213;-62
2022/07/13 10:04:01;;;;;;;2.58;0.70;;;;;;;;;;5147164;27;20539;-63
2022/07/13 10:06:28;;;;;;;4.25;0.70;;;;;;;;;;5139622;27;20229;-63
2022/07/13 10:08:56;;;;;;;4.43;1.20;;;;;;;;;;5158901;27;20221;-65
2022/07/13 10:11:22;;;;;;;0.50;0.50;;;;;;;;;;5157595;27;20285;-63
2022/07/13 10:13:48;;;;;;;1.13;1.08;;;;;;;;;;5158039;27;20270;-63
2022/07/13 10:16:15;;;;;;;1.88;1.77;;;;;;;;;;5139913;27;20210;-63
2022/07/13 10:18:42;;;;;;;3.88;2.30;;;;;;;;;;5138970;27;20206;-63
2022/07/13 10:21:13;;;;;;;0.57;0.57;;;;;;;;;;5158612;27;20209;-61
2022/07/13 10:23:39;;;;;;;3.75;0.60;;;;;;;;;;5142698;27;20214;-62
2022/07/13 10:26:19;;;;;;;2.33;0.55;;;;;;;;;;5140902;27;20213;-62
2022/07/13 10:29:00;;;;;;;1.58;0.40;;;;;;;;;;5141838;27;20221;-62
2022/07/13 10:31:27;;;;;;;1.38;0.47;;;;;;;;;;5136619;27;20548;-62
2022/07/13 10:33:53;;;;;;;1.35;0.55;;;;;;;;;;5141034;27;20506;-62
2022/07/13 10:36:45;;;;;;;2.08;0.32;;;;;;;;;;5146487;27;20241;-62
2022/07/13 10:39:11;;;;;;;1.90;0.50;;;;;;;;;;5157603;27;20205;-63
2022/07/13 10:41:55;;;;;;;0.40;0.40;;;;;;;;;;5157995;27;20443;-62
2022/07/13 10:44:31;;;;;;;4.72;0.60;;;;;;;;;;5142544;27;20209;-62
2022/07/13 10:46:57;;;;;;;1.75;0.80;;;;;;;;;;5147711;27;20592;-62
2022/07/13 10:49:27;;;;;;;2.58;0.82;;;;;;;;;;5160041;27;20547;-65
2022/07/13 10:51:54;;;;;;;2.85;0.40;;;;;;;;;;5145641;27;20505;-64
2022/07/13 10:54:20;;;;;;;0.40;0.40;;;;;;;;;;5149190;27;20213;-61
2022/07/13 10:57:05;;;;;;;5.78;0.70;;;;;;;;;;5157010;27;20209;-62
2022/07/13 10:59:48;;;;;;;1.92;0.50;;;;;;;;;;5153690;27;20508;-62
2022/07/13 11:02:33;;;;;;;3.50;0.50;;;;;;;;;;5157752;27;20266;-61
2022/07/13 11:05:01;;;;;;;1.35;0.50;;;;;;;;;;5157911;27;20225;-62
2022/07/13 11:07:39;;;;;;;0.82;0.40;;;;;;;;;;5151075;27;20214;-62
2022/07/13 11:10:18;;;;;;;2.35;0.40;;;;;;;;;;5136866;27;20552;-62
2022/07/13 11:12:55;;;;;;;1.45;0.40;;;;;;;;;;5146868;27;20524;-62
2022/07/13 11:15:24;;;;;;;0.40;0.40;;;;;;;;;;5141547;27;20414;-62
2022/07/13 11:17:52;;;;;;;0.40;0.40;;;;;;;;;;5135810;27;20210;-62
2022/07/13 11:20:18;;;;;;;1.63;0.40;;;;;;;;;;5136798;27;20209;-62
2022/07/13 11:25:55;;;;;;;0.85;0.40;;;;;;;;;;5118414;27;20528;-63
2022/07/13 11:28:26;;;;;;;0.40;0.40;;;;;;;;;;5155800;27;20235;-63
2022/07/13 11:30:55;;;;;;;2.13;0.45;;;;;;;;;;5157331;27;20261;-63
2022/07/13 11:33:21;;;;;;;2.53;0.40;;;;;;;;;;5145598;27;20209;-63
2022/07/13 11:35:48;;;;;;;2.70;0.20;;;;;;;;;;5135041;27;20213;-63
2022/07/13 11:38:15;;;;;;;7.32;0.52;;;;;;;;;;5145984;27;20405;-63
2022/07/13 11:40:41;;;;;;;9.85;0.93;;;;;;;;;;5147460;27;20536;-63
2022/07/13 11:43:08;;;;;;;0.93;0.50;;;;;;;;;;5139431;27;20209;-63
2022/07/13 11:45:34;;;;;;;4.88;0.50;;;;;;;;;;5156144;27;20516;-63
2022/07/13 11:48:03;;;;;;;0.38;0.38;;;;;;;;;;5156053;27;20390;-63
2022/07/13 11:50:42;;;;;;;0.30;0.30;;;;;;;;;;5145901;27;20228;-62
2022/07/13 11:53:10;;;;;;;1.88;0.30;;;;;;;;;;5147958;27;20258;-63
2022/07/13 11:55:37;;;;;;;0.57;0.40;;;;;;;;;;5147605;27;20566;-63
2022/07/13 11:58:03;;;;;;;2.38;0.40;;;;;;;;;;5155472;27;20205;-63
2022/07/13 12:00:30;;;;;;;3.22;0.43;;;;;;;;;;5156545;27;20209;-63
2022/07/13 12:02:56;;;;;;;1.42;0.50;;;;;;;;;;5157302;27;20209;-63
2022/07/13 12:05:25;;;;;;;1.10;0.38;;;;;;;;;;5144172;27;20225;-63
2022/07/13 12:08:03;;;;;;;2.55;0.38;;;;;;;;;;5143215;27;20221;-62
2022/07/13 12:10:30;;;;;;;2.50;0.30;;;;;;;;;;5143673;27;20276;-62
2022/07/13 12:12:57;;;;;;;0.70;0.20;;;;;;;;;;5136390;27;20213;-62
2022/07/13 12:15:23;;;;;;;1.40;0.30;;;;;;;;;;5148603;27;20444;-62
2022/07/13 12:17:50;;;;;;;0.88;0.40;;;;;;;;;;5138103;27;20336;-62
2022/07/13 12:20:17;;;;;;;0.40;0.40;;;;;;;;;;5155894;27;20233;-63
2022/07/13 12:22:51;;;;;;;0.30;0.30;;;;;;;;;;5155719;27;20514;-63
2022/07/13 12:25:23;;;;;;;1.55;0.30;;;;;;;;;;5149094;27;20231;-63
2022/07/13 12:27:51;;;;;;;1.98;0.30;;;;;;;;;;5150114;27;20563;-62
2022/07/13 12:30:17;;;;;;;0.20;0.20;;;;;;;;;;5151776;27;20536;-63
2022/07/13 12:32:57;;;;;;;1.55;0.20;;;;;;;;;;5146846;27;20414;-63
2022/07/13 12:35:25;;;;;;;0.75;0.30;;;;;;;;;;5138336;27;20459;-62
2022/07/13 12:37:52;;;;;;;0.32;0.32;;;;;;;;;;5155206;27;20205;-62
2022/07/13 12:40:38;;;;;;;2.38;0.30;;;;;;;;;;5155498;27;20205;-63
2022/07/13 12:43:04;;;;;;;1.27;0.40;;;;;;;;;;5139829;27;20209;-63
2022/07/13 12:45:31;;;;;;;2.03;0.25;;;;;;;;;;5143215;27;20208;-62
2022/07/13 12:47:57;;;;;;;0.28;0.28;;;;;;;;;;5148153;27;20255;-62
2022/07/13 12:50:27;;;;;;;0.20;0.20;;;;;;;;;;5155488;27;20213;-61
2022/07/13 12:53:01;;;;;;;1.55;0.25;;;;;;;;;;5143991;27;20209;-63
2022/07/13 12:55:28;;;;;;;2.05;0.30;;;;;;;;;;5140065;27;20514;-61
2022/07/13 12:57:54;;;;;;;0.88;0.20;;;;;;;;;;5138190;27;20233;-61
2022/07/13 13:00:23;;;;;;;1.58;0.40;;;;;;;;;;5138948;27;20552;-61
2022/07/13 13:02:49;;;;;;;0.20;0.20;;;;;;;;;;5138092;27;20263;-61
2022/07/13 13:05:16;;;;;;;1.88;0.30;;;;;;;;;;5139088;27;20221;-61
2022/07/13 13:07:42;;;;;;;0.30;0.30;;;;;;;;;;5137975;27;20573;-64
2022/07/13 13:10:11;;;;;;;0.43;0.30;;;;;;;;;;5138666;27;20245;-61
2022/07/13 13:12:37;;;;;;;0.30;0.30;;;;;;;;;;5152265;27;20216;-61
2022/07/13 13:15:04;;;;;;;2.30;0.30;;;;;;;;;;5139978;27;20209;-61
2022/07/13 13:17:31;;;;;;;2.55;0.40;;;;;;;;;;5152132;27;20209;-61
2022/07/13 13:19:57;;;;;;;1.75;0.20;;;;;;;;;;5156623;27;20210;-61
2022/07/13 13:22:23;;;;;;;0.45;0.20;;;;;;;;;;5147152;27;20217;-61
2022/07/13 13:24:49;;;;;;;3.45;0.40;;;;;;;;;;5145747;27;20216;-61
2022/07/13 13:27:17;;;;;;;0.22;0.20;;;;;;;;;;5156712;27;20213;-60
2022/07/13 13:32:27;;;;;;;0.30;0.30;;;;;;;;;;5149178;27;20211;-61
2022/07/13 13:34:55;;;;;;;0.88;0.30;;;;;;;;;;5138636;27;20730;-62
2022/07/13 13:37:22;;;;;;;0.95;0.28;;;;;;;;;;5138546;27;20235;-61
2022/07/13 13:39:48;;;;;;;2.58;0.20;;;;;;;;;;5143719;27;20209;-61
2022/07/13 13:42:14;;;;;;;0.38;0.20;;;;;;;;;;5143148;27;20378;-62
2022/07/13 13:44:42;;;;;;;0.35;0.20;;;;;;;;;;5137413;27;20209;-62
2022/07/13 13:47:08;;;;;;;0.30;0.30;;;;;;;;;;5150878;27;20447;-61
2022/07/13 13:49:35;;;;;;;0.20;0.20;;;;;;;;;;5138147;27;20294;-61
2022/07/13 13:52:01;;;;;;;0.30;0.30;;;;;;;;;;5139750;27;20209;-60
2022/07/13 13:54:28;;;;;;;1.85;0.40;;;;;;;;;;5157887;27;20455;-61
2022/07/13 13:56:54;;;;;;;0.60;0.20;;;;;;;;;;5149816;27;20336;-61
2022/07/13 13:59:20;;;;;;;1.08;0.20;;;;;;;;;;5153727;27;20224;-62
2022/07/13 14:01:48;;;;;;;2.60;0.50;;;;;;;;;;5144533;27;20210;-61
2022/07/13 14:04:15;;;;;;;0.55;0.30;;;;;;;;;;5147631;27;20243;-61
2022/07/13 14:06:41;;;;;;;1.75;0.20;;;;;;;;;;5150686;27;20262;-61
2022/07/13 14:09:07;;;;;;;0.47;0.30;;;;;;;;;;5151033;27;20233;-61
2022/07/13 14:11:34;;;;;;;1.05;0.30;;;;;;;;;;5140193;27;20209;-62
2022/07/13 14:14:00;;;;;;;1.35;0.20;;;;;;;;;;5140623;27;20206;-61
2022/07/13 14:16:26;;;;;;;0.32;0.25;;;;;;;;;;5152257;27;20250;-61
2022/07/13 14:18:54;;;;;;;0.38;0.35;;;;;;;;;;5161520;27;20208;-62
2022/07/13 14:21:20;;;;;;;0.47;0.30;;;;;;;;;;5160962;27;20219;-61
2022/07/13 14:23:47;;;;;;;1.40;0.30;;;;;;;;;;5151883;27;20209;-61
2022/07/13 14:26:13;;;;;;;1.95;0.20;;;;;;;;;;5145022;27;20441;-61
2022/07/13 14:28:39;;;;;;;0.43;0.30;;;;;;;;;;5148895;27;20205;-61
2022/07/13 14:31:06;;;;;;;1.80;0.20;;;;;;;;;;5139808;27;20243;-61
2022/07/13 14:33:32;;;;;;;0.57;0.30;;;;;;;;;;5141986;27;20201;-61
2022/07/13 14:36:04;;;;;;;0.35;0.30;;;;;;;;;;5152574;27;20217;-61
2022/07/13 14:38:30;;;;;;;1.65;0.30;;;;;;;;;;5156506;27;20205;-64
2022/07/13 14:40:56;;;;;;;0.93;0.40;;;;;;;;;;5153167;27;20214;-61
2022/07/13 14:43:22;;;;;;;0.40;0.40;;;;;;;;;;5139829;27;20210;-61
2022/07/13 14:45:49;;;;;;;0.40;0.40;;;;;;;;;;5146141;27;20338;-61
2022/07/13 14:48:15;;;;;;;0.38;0.38;;;;;;;;;;5159605;27;20205;-61
2022/07/13 14:50:42;;;;;;;1.67;0.45;;;;;;;;;;5158524;27;20236;-62
2022/07/13 14:53:09;;;;;;;0.63;0.40;;;;;;;;;;5144016;27;20383;-62
2022/07/13 14:55:35;;;;;;;4.57;0.73;;;;;;;;;;5147435;27;20209;-62
2022/07/13 14:58:02;;;;;;;1.20;0.45;;;;;;;;;;5152997;27;20217;-62